sensor_id;sensor_type;location;lat;lon;timestamp;P1;durP1;ratioP1;P2;durP2;ratioP2
1577;SDS011;57623;53.608;10.004;2024-03-22T00:00:37;16.47;;;12.43;;
1577;SDS011;57623;53.608;10.004;2024-03-22T00:03:03;15.80;;;10.70;;
1577;SDS011;57623;53.608;10.004;2024-03-22T00:05:30;15.37;;;11.77;;
1577;SDS011;57623;53.608;10.004;2024-03-22T00:07:56;15.33;;;11.73;;
1577;SDS011;57623;53.608;10.004;2024-03-22T00:10:24;16.80;;;11.43;;
1577;SDS011;57623;53.608;10.004;2024-03-22T00:12:50;17.20;;;11.90;;
1577;SDS011;57623;53.608;10.004;2024-03-22T00:15:17;17.80;;;12.60;;
1577;SDS011;57623;53.608;10.004;2024-03-22T00:17:44;18.33;;;13.20;;
1577;SDS011;57623;53.608;10.004;2024-03-22T00:20:11;13.57;;;11.73;;
1577;SDS011;57623;53.608;10.004;2024-03-22T00:22:37;15.80;;;12.67;;
1577;SDS011;57623;53.608;10.004;2024-03-22T00:25:05;14.40;;;11.70;;
1577;SDS011;57623;53.608;10.004;2024-03-22T00:27:31;16.77;;;12.93;;
1577;SDS011;57623;53.608;10.004;2024-03-22T00:29:58;14.97;;;12.13;;
1577;SDS011;57623;53.608;10.004;2024-03-22T00:32:25;16.23;;;12.33;;
1577;SDS011;57623;53.608;10.004;2024-03-22T00:34:53;14.70;;;12.33;;
1577;SDS011;57623;53.608;10.004;2024-03-22T00:37:19;16.53;;;12.97;;
1577;SDS011;57623;53.608;10.004;2024-03-22T00:39:46;15.50;;;12.80;;
1577;SDS011;57623;53.608;10.004;2024-03-22T00:42:12;14.50;;;12.20;;
1577;SDS011;57623;53.608;10.004;2024-03-22T00:44:39;19.40;;;11.20;;
1577;SDS011;57623;53.608;10.004;2024-03-22T00:47:05;16.63;;;11.70;;
1577;SDS011;57623;53.608;10.004;2024-03-22T00:49:33;16.93;;;12.37;;
1577;SDS011;57623;53.608;10.004;2024-03-22T00:52:01;15.77;;;11.67;;
1577;SDS011;57623;53.608;10.004;2024-03-22T00:54:28;14.67;;;12.37;;
1577;SDS011;57623;53.608;10.004;2024-03-22T00:56:54;14.77;;;11.63;;
1577;SDS011;57623;53.608;10.004;2024-03-22T00:59:21;14.37;;;12.03;;
1577;SDS011;57623;53.608;10.004;2024-03-22T01:01:47;19.47;;;13.13;;
1577;SDS011;57623;53.608;10.004;2024-03-22T01:04:14;15.57;;;11.53;;
1577;SDS011;57623;53.608;10.004;2024-03-22T01:06:40;16.93;;;12.20;;
1577;SDS011;57623;53.608;10.004;2024-03-22T01:09:09;17.77;;;13.40;;
1577;SDS011;57623;53.608;10.004;2024-03-22T01:11:35;16.07;;;13.00;;
1577;SDS011;57623;53.608;10.004;2024-03-22T01:14:02;17.40;;;13.40;;
1577;SDS011;57623;53.608;10.004;2024-03-22T01:16:28;14.80;;;12.10;;
1577;SDS011;57623;53.608;10.004;2024-03-22T01:18:55;13.63;;;11.23;;
1577;SDS011;57623;53.608;10.004;2024-03-22T01:21:21;15.77;;;12.53;;
1577;SDS011;57623;53.608;10.004;2024-03-22T01:23:50;16.67;;;13.00;;
1577;SDS011;57623;53.608;10.004;2024-03-22T01:26:18;16.93;;;12.90;;
1577;SDS011;57623;53.608;10.004;2024-03-22T01:28:45;20.13;;;13.17;;
1577;SDS011;57623;53.608;10.004;2024-03-22T01:31:12;15.00;;;12.93;;
1577;SDS011;57623;53.608;10.004;2024-03-22T01:33:39;15.67;;;12.90;;
1577;SDS011;57623;53.608;10.004;2024-03-22T01:36:05;14.60;;;13.10;;
1577;SDS011;57623;53.608;10.004;2024-03-22T01:38:32;14.20;;;12.30;;
1577;SDS011;57623;53.608;10.004;2024-03-22T01:40:58;15.97;;;13.10;;
1577;SDS011;57623;53.608;10.004;2024-03-22T01:43:26;17.27;;;13.00;;
1577;SDS011;57623;53.608;10.004;2024-03-22T01:45:52;17.00;;;13.60;;
1577;SDS011;57623;53.608;10.004;2024-03-22T01:48:20;17.73;;;14.40;;
1577;SDS011;57623;53.608;10.004;2024-03-22T01:50:46;16.63;;;13.60;;
1577;SDS011;57623;53.608;10.004;2024-03-22T01:53:13;19.53;;;14.30;;
1577;SDS011;57623;53.608;10.004;2024-03-22T01:55:39;19.43;;;14.00;;
1577;SDS011;57623;53.608;10.004;2024-03-22T01:58:06;20.03;;;15.37;;
1577;SDS011;57623;53.608;10.004;2024-03-22T02:00:35;19.30;;;14.20;;
1577;SDS011;57623;53.608;10.004;2024-03-22T02:03:02;20.10;;;14.93;;
1577;SDS011;57623;53.608;10.004;2024-03-22T02:05:28;17.83;;;14.03;;
1577;SDS011;57623;53.608;10.004;2024-03-22T02:07:56;21.57;;;14.13;;
1577;SDS011;57623;53.608;10.004;2024-03-22T02:10:22;20.20;;;16.40;;
1577;SDS011;57623;53.608;10.004;2024-03-22T02:12:49;17.37;;;14.70;;
1577;SDS011;57623;53.608;10.004;2024-03-22T02:15:16;21.73;;;14.30;;
1577;SDS011;57623;53.608;10.004;2024-03-22T02:17:43;18.83;;;15.27;;
1577;SDS011;57623;53.608;10.004;2024-03-22T02:20:10;20.57;;;15.43;;
1577;SDS011;57623;53.608;10.004;2024-03-22T02:22:37;20.00;;;16.47;;
1577;SDS011;57623;53.608;10.004;2024-03-22T02:25:06;19.03;;;14.57;;
1577;SDS011;57623;53.608;10.004;2024-03-22T02:27:33;23.63;;;17.30;;
1577;SDS011;57623;53.608;10.004;2024-03-22T02:30:00;21.23;;;16.07;;
1577;SDS011;57623;53.608;10.004;2024-03-22T02:32:27;21.17;;;15.90;;
1577;SDS011;57623;53.608;10.004;2024-03-22T02:34:55;21.30;;;16.37;;
1577;SDS011;57623;53.608;10.004;2024-03-22T02:37:21;22.87;;;17.30;;
1577;SDS011;57623;53.608;10.004;2024-03-22T02:39:48;21.63;;;16.37;;
1577;SDS011;57623;53.608;10.004;2024-03-22T02:42:15;21.30;;;16.97;;
1577;SDS011;57623;53.608;10.004;2024-03-22T02:44:42;22.17;;;16.80;;
1577;SDS011;57623;53.608;10.004;2024-03-22T02:47:08;19.33;;;15.90;;
1577;SDS011;57623;53.608;10.004;2024-03-22T02:49:37;22.20;;;18.27;;
1577;SDS011;57623;53.608;10.004;2024-03-22T02:52:03;22.17;;;17.20;;
1577;SDS011;57623;53.608;10.004;2024-03-22T02:54:31;21.40;;;17.40;;
1577;SDS011;57623;53.608;10.004;2024-03-22T02:56:57;21.50;;;17.00;;
1577;SDS011;57623;53.608;10.004;2024-03-22T02:59:26;22.90;;;17.97;;
1577;SDS011;57623;53.608;10.004;2024-03-22T03:01:52;24.10;;;19.10;;
1577;SDS011;57623;53.608;10.004;2024-03-22T03:04:20;21.57;;;17.13;;
1577;SDS011;57623;53.608;10.004;2024-03-22T03:06:46;23.67;;;18.47;;
1577;SDS011;57623;53.608;10.004;2024-03-22T03:09:13;23.60;;;19.07;;
1577;SDS011;57623;53.608;10.004;2024-03-22T03:11:39;22.53;;;18.20;;
1577;SDS011;57623;53.608;10.004;2024-03-22T03:14:06;25.13;;;19.53;;
1577;SDS011;57623;53.608;10.004;2024-03-22T03:16:34;23.70;;;17.97;;
1577;SDS011;57623;53.608;10.004;2024-03-22T03:19:01;24.30;;;19.33;;
1577;SDS011;57623;53.608;10.004;2024-03-22T03:21:27;27.50;;;21.70;;
1577;SDS011;57623;53.608;10.004;2024-03-22T03:23:54;26.87;;;21.00;;
1577;SDS011;57623;53.608;10.004;2024-03-22T03:26:20;28.10;;;20.60;;
1577;SDS011;57623;53.608;10.004;2024-03-22T03:28:47;25.27;;;20.10;;
1577;SDS011;57623;53.608;10.004;2024-03-22T03:31:13;26.63;;;21.23;;
1577;SDS011;57623;53.608;10.004;2024-03-22T03:33:41;27.20;;;20.87;;
1577;SDS011;57623;53.608;10.004;2024-03-22T03:36:07;26.17;;;21.27;;
1577;SDS011;57623;53.608;10.004;2024-03-22T03:38:35;26.87;;;20.77;;
1577;SDS011;57623;53.608;10.004;2024-03-22T03:41:03;29.17;;;22.13;;
1577;SDS011;57623;53.608;10.004;2024-03-22T03:43:30;25.90;;;19.80;;
1577;SDS011;57623;53.608;10.004;2024-03-22T03:45:56;27.70;;;20.97;;
1577;SDS011;57623;53.608;10.004;2024-03-22T03:48:23;30.33;;;22.37;;
1577;SDS011;57623;53.608;10.004;2024-03-22T03:50:54;27.83;;;20.73;;
1577;SDS011;57623;53.608;10.004;2024-03-22T03:53:24;28.87;;;22.50;;
1577;SDS011;57623;53.608;10.004;2024-03-22T03:55:50;28.37;;;23.20;;
1577;SDS011;57623;53.608;10.004;2024-03-22T03:58:17;29.73;;;23.20;;
1577;SDS011;57623;53.608;10.004;2024-03-22T04:00:43;30.63;;;22.87;;
1577;SDS011;57623;53.608;10.004;2024-03-22T04:03:10;28.93;;;22.90;;
1577;SDS011;57623;53.608;10.004;2024-03-22T04:05:37;29.67;;;22.23;;
1577;SDS011;57623;53.608;10.004;2024-03-22T04:08:05;31.30;;;23.10;;
1577;SDS011;57623;53.608;10.004;2024-03-22T04:10:31;30.23;;;23.30;;
1577;SDS011;57623;53.608;10.004;2024-03-22T04:12:58;30.63;;;22.30;;
1577;SDS011;57623;53.608;10.004;2024-03-22T04:15:24;31.80;;;24.30;;
1577;SDS011;57623;53.608;10.004;2024-03-22T04:17:52;30.10;;;24.17;;
1577;SDS011;57623;53.608;10.004;2024-03-22T04:20:18;34.60;;;24.30;;
1577;SDS011;57623;53.608;10.004;2024-03-22T04:22:45;35.60;;;26.67;;
1577;SDS011;57623;53.608;10.004;2024-03-22T04:25:13;31.20;;;23.90;;
1577;SDS011;57623;53.608;10.004;2024-03-22T04:27:40;32.97;;;25.07;;
1577;SDS011;57623;53.608;10.004;2024-03-22T04:30:06;33.93;;;26.53;;
1577;SDS011;57623;53.608;10.004;2024-03-22T04:32:35;33.23;;;25.33;;
1577;SDS011;57623;53.608;10.004;2024-03-22T04:35:02;36.33;;;26.90;;
1577;SDS011;57623;53.608;10.004;2024-03-22T04:37:29;32.93;;;24.53;;
1577;SDS011;57623;53.608;10.004;2024-03-22T04:39:56;32.57;;;25.40;;
1577;SDS011;57623;53.608;10.004;2024-03-22T04:42:25;35.90;;;26.03;;
1577;SDS011;57623;53.608;10.004;2024-03-22T04:44:52;35.60;;;26.40;;
1577;SDS011;57623;53.608;10.004;2024-03-22T04:47:20;36.13;;;26.27;;
1577;SDS011;57623;53.608;10.004;2024-03-22T04:49:46;33.53;;;24.90;;
1577;SDS011;57623;53.608;10.004;2024-03-22T04:52:13;37.57;;;26.67;;
1577;SDS011;57623;53.608;10.004;2024-03-22T04:54:39;37.30;;;27.30;;
1577;SDS011;57623;53.608;10.004;2024-03-22T04:57:06;36.10;;;26.77;;
1577;SDS011;57623;53.608;10.004;2024-03-22T04:59:33;34.10;;;25.37;;
1577;SDS011;57623;53.608;10.004;2024-03-22T05:02:00;35.70;;;27.40;;
1577;SDS011;57623;53.608;10.004;2024-03-22T05:04:27;37.47;;;26.63;;
1577;SDS011;57623;53.608;10.004;2024-03-22T05:06:53;36.50;;;26.57;;
1577;SDS011;57623;53.608;10.004;2024-03-22T05:09:20;37.80;;;27.13;;
1577;SDS011;57623;53.608;10.004;2024-03-22T05:11:47;36.03;;;25.37;;
1577;SDS011;57623;53.608;10.004;2024-03-22T05:14:16;32.30;;;24.33;;
1577;SDS011;57623;53.608;10.004;2024-03-22T05:16:44;37.93;;;27.60;;
1577;SDS011;57623;53.608;10.004;2024-03-22T05:19:11;34.97;;;27.87;;
1577;SDS011;57623;53.608;10.004;2024-03-22T05:21:37;36.03;;;27.50;;
1577;SDS011;57623;53.608;10.004;2024-03-22T05:24:04;35.67;;;26.77;;
1577;SDS011;57623;53.608;10.004;2024-03-22T05:26:31;35.90;;;25.77;;
1577;SDS011;57623;53.608;10.004;2024-03-22T05:29:01;36.40;;;27.70;;
1577;SDS011;57623;53.608;10.004;2024-03-22T05:31:28;38.37;;;28.23;;
1577;SDS011;57623;53.608;10.004;2024-03-22T05:33:56;35.80;;;27.50;;
1577;SDS011;57623;53.608;10.004;2024-03-22T05:36:22;41.50;;;27.80;;
1577;SDS011;57623;53.608;10.004;2024-03-22T05:38:49;37.07;;;27.00;;
1577;SDS011;57623;53.608;10.004;2024-03-22T05:41:15;37.27;;;27.70;;
1577;SDS011;57623;53.608;10.004;2024-03-22T05:43:42;38.97;;;27.17;;
1577;SDS011;57623;53.608;10.004;2024-03-22T05:46:08;36.30;;;26.57;;
1577;SDS011;57623;53.608;10.004;2024-03-22T05:48:35;38.70;;;27.40;;
1577;SDS011;57623;53.608;10.004;2024-03-22T05:51:03;37.50;;;28.37;;
1577;SDS011;57623;53.608;10.004;2024-03-22T05:53:30;36.80;;;27.03;;
1577;SDS011;57623;53.608;10.004;2024-03-22T05:55:56;38.80;;;27.80;;
1577;SDS011;57623;53.608;10.004;2024-03-22T05:58:23;38.47;;;27.57;;
1577;SDS011;57623;53.608;10.004;2024-03-22T06:00:49;34.83;;;26.23;;
1577;SDS011;57623;53.608;10.004;2024-03-22T06:03:18;41.10;;;28.07;;
1577;SDS011;57623;53.608;10.004;2024-03-22T06:05:45;40.50;;;28.73;;
1577;SDS011;57623;53.608;10.004;2024-03-22T06:08:14;40.27;;;29.57;;
1577;SDS011;57623;53.608;10.004;2024-03-22T06:10:44;37.97;;;27.30;;
1577;SDS011;57623;53.608;10.004;2024-03-22T06:13:11;35.43;;;27.43;;
1577;SDS011;57623;53.608;10.004;2024-03-22T06:15:37;37.90;;;28.43;;
1577;SDS011;57623;53.608;10.004;2024-03-22T06:18:05;40.03;;;28.57;;
1577;SDS011;57623;53.608;10.004;2024-03-22T06:20:31;42.13;;;30.23;;
1577;SDS011;57623;53.608;10.004;2024-03-22T06:22:58;39.77;;;28.30;;
1577;SDS011;57623;53.608;10.004;2024-03-22T06:25:26;38.40;;;29.70;;
1577;SDS011;57623;53.608;10.004;2024-03-22T06:27:53;38.23;;;28.07;;
1577;SDS011;57623;53.608;10.004;2024-03-22T06:30:19;40.27;;;28.87;;
1577;SDS011;57623;53.608;10.004;2024-03-22T06:32:46;41.63;;;29.27;;
1577;SDS011;57623;53.608;10.004;2024-03-22T06:35:12;37.37;;;29.23;;
1577;SDS011;57623;53.608;10.004;2024-03-22T06:37:39;42.53;;;30.37;;
1577;SDS011;57623;53.608;10.004;2024-03-22T06:40:06;39.73;;;28.60;;
1577;SDS011;57623;53.608;10.004;2024-03-22T06:42:36;40.70;;;29.37;;
1577;SDS011;57623;53.608;10.004;2024-03-22T06:45:02;41.83;;;30.40;;
1577;SDS011;57623;53.608;10.004;2024-03-22T06:47:29;39.97;;;29.20;;
1577;SDS011;57623;53.608;10.004;2024-03-22T06:49:56;43.80;;;30.47;;
1577;SDS011;57623;53.608;10.004;2024-03-22T06:52:23;38.97;;;29.40;;
1577;SDS011;57623;53.608;10.004;2024-03-22T06:54:49;37.73;;;29.73;;
1577;SDS011;57623;53.608;10.004;2024-03-22T06:57:17;41.13;;;29.47;;
1577;SDS011;57623;53.608;10.004;2024-03-22T06:59:44;44.50;;;30.53;;
1577;SDS011;57623;53.608;10.004;2024-03-22T07:02:12;42.57;;;30.70;;
1577;SDS011;57623;53.608;10.004;2024-03-22T07:04:39;42.20;;;29.90;;
1577;SDS011;57623;53.608;10.004;2024-03-22T07:07:06;39.50;;;29.90;;
1577;SDS011;57623;53.608;10.004;2024-03-22T07:09:32;44.93;;;29.90;;
1577;SDS011;57623;53.608;10.004;2024-03-22T07:11:59;40.40;;;30.60;;
1577;SDS011;57623;53.608;10.004;2024-03-22T07:14:26;43.13;;;30.30;;
1577;SDS011;57623;53.608;10.004;2024-03-22T07:16:54;43.73;;;31.67;;
1577;SDS011;57623;53.608;10.004;2024-03-22T07:19:20;47.87;;;31.70;;
1577;SDS011;57623;53.608;10.004;2024-03-22T07:21:47;45.17;;;33.30;;
1577;SDS011;57623;53.608;10.004;2024-03-22T07:24:13;40.67;;;31.33;;
1577;SDS011;57623;53.608;10.004;2024-03-22T07:26:41;43.43;;;31.13;;
1577;SDS011;57623;53.608;10.004;2024-03-22T07:29:07;43.63;;;32.20;;
1577;SDS011;57623;53.608;10.004;2024-03-22T07:31:34;42.70;;;29.90;;
1577;SDS011;57623;53.608;10.004;2024-03-22T07:34:01;40.00;;;29.67;;
1577;SDS011;57623;53.608;10.004;2024-03-22T07:36:30;42.27;;;29.90;;
1577;SDS011;57623;53.608;10.004;2024-03-22T07:38:56;42.50;;;30.57;;
1577;SDS011;57623;53.608;10.004;2024-03-22T07:41:23;45.80;;;32.67;;
1577;SDS011;57623;53.608;10.004;2024-03-22T07:43:49;41.63;;;31.77;;
1577;SDS011;57623;53.608;10.004;2024-03-22T07:46:16;44.37;;;31.87;;
1577;SDS011;57623;53.608;10.004;2024-03-22T07:48:43;44.13;;;32.37;;
1577;SDS011;57623;53.608;10.004;2024-03-22T07:51:12;44.33;;;31.90;;
1577;SDS011;57623;53.608;10.004;2024-03-22T07:53:38;44.10;;;31.73;;
1577;SDS011;57623;53.608;10.004;2024-03-22T07:56:05;42.33;;;30.43;;
1577;SDS011;57623;53.608;10.004;2024-03-22T07:58:31;47.70;;;31.90;;
1577;SDS011;57623;53.608;10.004;2024-03-22T08:00:59;45.60;;;32.20;;
1577;SDS011;57623;53.608;10.004;2024-03-22T08:03:25;44.87;;;32.37;;
1577;SDS011;57623;53.608;10.004;2024-03-22T08:05:52;48.57;;;33.17;;
1577;SDS011;57623;53.608;10.004;2024-03-22T08:08:19;49.03;;;33.23;;
1577;SDS011;57623;53.608;10.004;2024-03-22T08:10:46;45.30;;;30.87;;
1577;SDS011;57623;53.608;10.004;2024-03-22T08:13:12;46.77;;;33.57;;
1577;SDS011;57623;53.608;10.004;2024-03-22T08:15:39;44.77;;;33.10;;
1577;SDS011;57623;53.608;10.004;2024-03-22T08:18:06;46.23;;;33.67;;
1577;SDS011;57623;53.608;10.004;2024-03-22T08:20:34;47.03;;;33.73;;
1577;SDS011;57623;53.608;10.004;2024-03-22T08:23:00;45.57;;;32.80;;
1577;SDS011;57623;53.608;10.004;2024-03-22T08:25:28;45.07;;;31.90;;
1577;SDS011;57623;53.608;10.004;2024-03-22T08:27:55;44.33;;;32.53;;
1577;SDS011;57623;53.608;10.004;2024-03-22T08:30:23;50.03;;;35.30;;
1577;SDS011;57623;53.608;10.004;2024-03-22T08:32:50;46.97;;;34.20;;
1577;SDS011;57623;53.608;10.004;2024-03-22T08:35:17;48.37;;;33.97;;
1577;SDS011;57623;53.608;10.004;2024-03-22T08:37:44;45.07;;;34.37;;
1577;SDS011;57623;53.608;10.004;2024-03-22T08:40:11;47.33;;;35.20;;
1577;SDS011;57623;53.608;10.004;2024-03-22T08:42:40;49.73;;;33.90;;
1577;SDS011;57623;53.608;10.004;2024-03-22T08:45:08;45.50;;;34.20;;
1577;SDS011;57623;53.608;10.004;2024-03-22T08:47:34;49.80;;;34.70;;
1577;SDS011;57623;53.608;10.004;2024-03-22T08:50:01;47.80;;;34.00;;
1577;SDS011;57623;53.608;10.004;2024-03-22T08:52:28;47.00;;;32.70;;
1577;SDS011;57623;53.608;10.004;2024-03-22T08:54:57;48.30;;;34.60;;
1577;SDS011;57623;53.608;10.004;2024-03-22T08:57:23;48.07;;;34.90;;
1577;SDS011;57623;53.608;10.004;2024-03-22T08:59:51;49.53;;;34.70;;
1577;SDS011;57623;53.608;10.004;2024-03-22T09:02:17;46.57;;;34.30;;
1577;SDS011;57623;53.608;10.004;2024-03-22T09:04:45;43.40;;;32.93;;
1577;SDS011;57623;53.608;10.004;2024-03-22T09:07:12;46.30;;;34.17;;
1577;SDS011;57623;53.608;10.004;2024-03-22T09:09:39;46.90;;;33.50;;
1577;SDS011;57623;53.608;10.004;2024-03-22T09:12:07;50.23;;;35.00;;
1577;SDS011;57623;53.608;10.004;2024-03-22T09:14:34;47.77;;;34.80;;
1577;SDS011;57623;53.608;10.004;2024-03-22T09:17:02;48.43;;;35.03;;
1577;SDS011;57623;53.608;10.004;2024-03-22T09:19:29;50.03;;;34.77;;
1577;SDS011;57623;53.608;10.004;2024-03-22T09:21:55;46.50;;;34.57;;
1577;SDS011;57623;53.608;10.004;2024-03-22T09:24:22;45.80;;;33.07;;
1577;SDS011;57623;53.608;10.004;2024-03-22T09:26:48;49.20;;;34.30;;
1577;SDS011;57623;53.608;10.004;2024-03-22T09:29:15;45.13;;;31.50;;
1577;SDS011;57623;53.608;10.004;2024-03-22T09:31:41;46.77;;;34.97;;
1577;SDS011;57623;53.608;10.004;2024-03-22T09:34:11;45.37;;;33.53;;
1577;SDS011;57623;53.608;10.004;2024-03-22T09:36:37;46.13;;;33.33;;
1577;SDS011;57623;53.608;10.004;2024-03-22T09:39:04;48.00;;;33.50;;
1577;SDS011;57623;53.608;10.004;2024-03-22T09:41:31;45.37;;;32.53;;
1577;SDS011;57623;53.608;10.004;2024-03-22T09:43:59;43.70;;;32.17;;
1577;SDS011;57623;53.608;10.004;2024-03-22T09:46:27;46.00;;;31.67;;
1577;SDS011;57623;53.608;10.004;2024-03-22T09:48:55;45.93;;;33.50;;
1577;SDS011;57623;53.608;10.004;2024-03-22T09:51:24;44.43;;;32.63;;
1577;SDS011;57623;53.608;10.004;2024-03-22T09:53:51;41.37;;;30.87;;
1577;SDS011;57623;53.608;10.004;2024-03-22T09:56:19;42.50;;;31.67;;
1577;SDS011;57623;53.608;10.004;2024-03-22T09:58:47;39.70;;;30.07;;
1577;SDS011;57623;53.608;10.004;2024-03-22T10:01:14;42.03;;;29.13;;
1577;SDS011;57623;53.608;10.004;2024-03-22T10:03:42;38.60;;;27.33;;
1577;SDS011;57623;53.608;10.004;2024-03-22T10:06:09;40.70;;;29.00;;
1577;SDS011;57623;53.608;10.004;2024-03-22T10:08:38;37.47;;;27.50;;
1577;SDS011;57623;53.608;10.004;2024-03-22T10:11:04;35.33;;;26.90;;
1577;SDS011;57623;53.608;10.004;2024-03-22T10:13:31;33.80;;;25.67;;
1577;SDS011;57623;53.608;10.004;2024-03-22T10:15:57;34.77;;;25.30;;
1577;SDS011;57623;53.608;10.004;2024-03-22T10:18:25;31.53;;;24.20;;
1577;SDS011;57623;53.608;10.004;2024-03-22T10:20:58;31.07;;;24.20;;
1577;SDS011;57623;53.608;10.004;2024-03-22T10:23:26;33.23;;;24.27;;
1577;SDS011;57623;53.608;10.004;2024-03-22T10:25:55;33.00;;;23.90;;
1577;SDS011;57623;53.608;10.004;2024-03-22T10:28:23;32.50;;;23.80;;
1577;SDS011;57623;53.608;10.004;2024-03-22T10:30:50;28.03;;;22.10;;
1577;SDS011;57623;53.608;10.004;2024-03-22T10:33:18;29.13;;;22.63;;
1577;SDS011;57623;53.608;10.004;2024-03-22T10:35:44;28.10;;;21.57;;
1577;SDS011;57623;53.608;10.004;2024-03-22T10:38:12;28.67;;;21.47;;
1577;SDS011;57623;53.608;10.004;2024-03-22T10:40:40;29.27;;;22.50;;
1577;SDS011;57623;53.608;10.004;2024-03-22T10:43:13;27.97;;;22.17;;
1577;SDS011;57623;53.608;10.004;2024-03-22T10:45:39;27.90;;;21.57;;
1577;SDS011;57623;53.608;10.004;2024-03-22T10:48:09;24.63;;;20.17;;
1577;SDS011;57623;53.608;10.004;2024-03-22T10:50:37;22.00;;;18.17;;
1577;SDS011;57623;53.608;10.004;2024-03-22T10:53:06;22.73;;;18.23;;
1577;SDS011;57623;53.608;10.004;2024-03-22T10:55:36;23.73;;;18.30;;
1577;SDS011;57623;53.608;10.004;2024-03-22T10:58:15;22.40;;;16.90;;
1577;SDS011;57623;53.608;10.004;2024-03-22T11:00:42;20.50;;;16.17;;
1577;SDS011;57623;53.608;10.004;2024-03-22T11:03:09;17.40;;;15.07;;
1577;SDS011;57623;53.608;10.004;2024-03-22T11:05:44;15.57;;;13.67;;
1577;SDS011;57623;53.608;10.004;2024-03-22T11:08:12;17.70;;;14.60;;
1577;SDS011;57623;53.608;10.004;2024-03-22T11:10:38;16.07;;;13.67;;
1577;SDS011;57623;53.608;10.004;2024-03-22T11:13:06;16.17;;;14.03;;
1577;SDS011;57623;53.608;10.004;2024-03-22T11:15:35;15.43;;;13.63;;
1577;SDS011;57623;53.608;10.004;2024-03-22T11:18:02;15.57;;;12.47;;
1577;SDS011;57623;53.608;10.004;2024-03-22T11:20:28;16.50;;;14.70;;
1577;SDS011;57623;53.608;10.004;2024-03-22T11:22:56;16.60;;;14.70;;
1577;SDS011;57623;53.608;10.004;2024-03-22T11:25:22;15.60;;;13.60;;
1577;SDS011;57623;53.608;10.004;2024-03-22T11:27:49;14.17;;;12.67;;
1577;SDS011;57623;53.608;10.004;2024-03-22T11:30:15;13.40;;;12.00;;
1577;SDS011;57623;53.608;10.004;2024-03-22T11:32:44;11.50;;;10.10;;
1577;SDS011;57623;53.608;10.004;2024-03-22T11:35:11;13.63;;;11.60;;
1577;SDS011;57623;53.608;10.004;2024-03-22T11:37:39;13.33;;;10.70;;
1577;SDS011;57623;53.608;10.004;2024-03-22T11:40:08;11.97;;;10.17;;
1577;SDS011;57623;53.608;10.004;2024-03-22T11:42:36;12.30;;;10.97;;
1577;SDS011;57623;53.608;10.004;2024-03-22T11:45:03;13.83;;;11.03;;
1577;SDS011;57623;53.608;10.004;2024-03-22T11:47:32;12.37;;;11.03;;
1577;SDS011;57623;53.608;10.004;2024-03-22T11:50:01;12.33;;;10.70;;
1577;SDS011;57623;53.608;10.004;2024-03-22T11:52:28;11.53;;;10.20;;
1577;SDS011;57623;53.608;10.004;2024-03-22T11:54:55;11.73;;;10.13;;
1577;SDS011;57623;53.608;10.004;2024-03-22T11:57:23;10.90;;;9.80;;
1577;SDS011;57623;53.608;10.004;2024-03-22T11:59:49;11.60;;;10.20;;
1577;SDS011;57623;53.608;10.004;2024-03-22T12:02:17;11.33;;;10.10;;
1577;SDS011;57623;53.608;10.004;2024-03-22T12:04:44;10.90;;;9.67;;
1577;SDS011;57623;53.608;10.004;2024-03-22T12:07:14;10.63;;;9.53;;
1577;SDS011;57623;53.608;10.004;2024-03-22T12:09:41;11.33;;;9.90;;
1577;SDS011;57623;53.608;10.004;2024-03-22T12:12:09;10.63;;;9.53;;
1577;SDS011;57623;53.608;10.004;2024-03-22T12:14:36;10.43;;;9.20;;
1577;SDS011;57623;53.608;10.004;2024-03-22T12:17:04;12.10;;;10.20;;
1577;SDS011;57623;53.608;10.004;2024-03-22T12:19:30;10.10;;;9.10;;
1577;SDS011;57623;53.608;10.004;2024-03-22T12:21:57;8.63;;;7.73;;
1577;SDS011;57623;53.608;10.004;2024-03-22T12:24:25;9.23;;;8.33;;
1577;SDS011;57623;53.608;10.004;2024-03-22T12:26:53;9.23;;;8.33;;
1577;SDS011;57623;53.608;10.004;2024-03-22T12:29:19;8.17;;;7.37;;
1577;SDS011;57623;53.608;10.004;2024-03-22T12:31:47;7.47;;;6.77;;
1577;SDS011;57623;53.608;10.004;2024-03-22T12:34:13;7.40;;;6.17;;
1577;SDS011;57623;53.608;10.004;2024-03-22T12:36:43;7.20;;;6.50;;
1577;SDS011;57623;53.608;10.004;2024-03-22T12:39:10;7.57;;;6.77;;
1577;SDS011;57623;53.608;10.004;2024-03-22T12:41:38;7.80;;;7.00;;
1577;SDS011;57623;53.608;10.004;2024-03-22T12:44:05;6.77;;;5.83;;
1577;SDS011;57623;53.608;10.004;2024-03-22T12:46:32;6.37;;;5.77;;
1577;SDS011;57623;53.608;10.004;2024-03-22T12:48:59;7.03;;;5.80;;
1577;SDS011;57623;53.608;10.004;2024-03-22T12:51:26;6.50;;;5.90;;
1577;SDS011;57623;53.608;10.004;2024-03-22T12:53:52;6.20;;;5.63;;
1577;SDS011;57623;53.608;10.004;2024-03-22T12:56:20;5.07;;;4.40;;
1577;SDS011;57623;53.608;10.004;2024-03-22T12:58:48;3.83;;;3.53;;
1577;SDS011;57623;53.608;10.004;2024-03-22T13:01:15;4.10;;;3.80;;
1577;SDS011;57623;53.608;10.004;2024-03-22T13:03:41;3.90;;;3.50;;
1577;SDS011;57623;53.608;10.004;2024-03-22T13:06:08;3.40;;;3.10;;
1577;SDS011;57623;53.608;10.004;2024-03-22T13:08:35;3.50;;;3.20;;
1577;SDS011;57623;53.608;10.004;2024-03-22T13:11:03;3.93;;;3.00;;
1577;SDS011;57623;53.608;10.004;2024-03-22T13:13:29;2.80;;;2.60;;
1577;SDS011;57623;53.608;10.004;2024-03-22T13:15:58;3.60;;;2.77;;
1577;SDS011;57623;53.608;10.004;2024-03-22T13:18:24;3.03;;;2.73;;
1577;SDS011;57623;53.608;10.004;2024-03-22T13:20:51;2.67;;;2.47;;
1577;SDS011;57623;53.608;10.004;2024-03-22T13:23:18;2.80;;;2.60;;
1577;SDS011;57623;53.608;10.004;2024-03-22T13:25:45;2.60;;;2.40;;
1577;SDS011;57623;53.608;10.004;2024-03-22T13:28:11;2.20;;;2.10;;
1577;SDS011;57623;53.608;10.004;2024-03-22T13:30:38;2.70;;;2.50;;
1577;SDS011;57623;53.608;10.004;2024-03-22T13:33:07;2.47;;;2.27;;
1577;SDS011;57623;53.608;10.004;2024-03-22T13:35:34;2.67;;;2.47;;
1577;SDS011;57623;53.608;10.004;2024-03-22T13:38:00;2.93;;;2.70;;
1577;SDS011;57623;53.608;10.004;2024-03-22T13:40:27;2.63;;;2.43;;
1577;SDS011;57623;53.608;10.004;2024-03-22T13:42:53;2.80;;;2.60;;
1577;SDS011;57623;53.608;10.004;2024-03-22T13:45:21;2.60;;;2.40;;
1577;SDS011;57623;53.608;10.004;2024-03-22T13:47:47;2.80;;;2.60;;
1577;SDS011;57623;53.608;10.004;2024-03-22T13:50:15;2.67;;;2.47;;
1577;SDS011;57623;53.608;10.004;2024-03-22T13:52:42;2.60;;;2.40;;
1577;SDS011;57623;53.608;10.004;2024-03-22T13:55:09;2.67;;;2.47;;
1577;SDS011;57623;53.608;10.004;2024-03-22T13:57:35;2.63;;;2.43;;
1577;SDS011;57623;53.608;10.004;2024-03-22T14:00:02;2.33;;;2.13;;
1577;SDS011;57623;53.608;10.004;2024-03-22T14:02:31;2.10;;;1.90;;
1577;SDS011;57623;53.608;10.004;2024-03-22T14:04:58;2.20;;;2.10;;
1577;SDS011;57623;53.608;10.004;2024-03-22T14:07:26;1.90;;;1.80;;
1577;SDS011;57623;53.608;10.004;2024-03-22T14:09:53;1.90;;;1.80;;
1577;SDS011;57623;53.608;10.004;2024-03-22T14:12:19;1.60;;;1.50;;
1577;SDS011;57623;53.608;10.004;2024-03-22T14:14:46;1.90;;;1.80;;
1577;SDS011;57623;53.608;10.004;2024-03-22T14:17:12;1.77;;;1.67;;
1577;SDS011;57623;53.608;10.004;2024-03-22T14:19:39;1.50;;;1.40;;
1577;SDS011;57623;53.608;10.004;2024-03-22T14:22:05;3.73;;;1.70;;
1577;SDS011;57623;53.608;10.004;2024-03-22T14:24:34;2.20;;;1.53;;